Time;durP1;ratioP1;P1;durP2;ratioP2;P2;SDS_P1;SDS_P2;PMS_P1;PMS_P2;Temp;Humidity;BMP_temperature;BMP_pressure;BME280_temperature;BME280_humidity;BME280_pressure;Samples;Min_cycle;Max_cycle;Signal;HPM_P1;HPM_P2
2022/09/24 00:01:39;;;;;;;6.97;6.27;;;10.80;99.90;;;;;;5035081;28;20460;-76
2022/09/24 00:04:10;;;;;;;6.50;5.83;;;10.80;99.90;;;;;;5035618;28;20532;-76
2022/09/24 00:06:40;;;;;;;7.07;6.20;;;10.80;99.90;;;;;;5034935;28;20486;-76
2022/09/24 00:09:08;;;;;;;7.10;5.30;;;10.80;99.90;;;;;;5034980;28;20520;-76
2022/09/24 00:11:35;;;;;;;6.47;5.77;;;10.80;99.90;;;;;;5034987;28;20496;-76
2022/09/24 00:14:02;;;;;;;9.10;6.03;;;10.70;99.90;;;;;;5034782;28;20484;-76
2022/09/24 00:16:31;;;;;;;8.27;5.73;;;10.70;99.90;;;;;;5034436;28;20450;-76
2022/09/24 00:18:59;;;;;;;8.10;5.27;;;10.60;99.90;;;;;;5034865;28;20451;-76
2022/09/24 00:21:29;;;;;;;11.43;5.80;;;10.60;99.90;;;;;;5034920;28;20883;-76
2022/09/24 00:23:58;;;;;;;8.40;5.60;;;10.50;99.90;;;;;;5034440;28;20475;-76
2022/09/24 00:29:17;;;;;;;16.53;6.00;;;10.50;99.90;;;;;;5019049;28;20493;-76
2022/09/24 00:31:44;;;;;;;7.10;5.33;;;10.50;99.90;;;;;;5034735;28;20455;-76
2022/09/24 00:34:11;;;;;;;6.47;5.67;;;10.50;99.90;;;;;;5034587;28;20480;-76
2022/09/24 00:36:39;;;;;;;9.27;5.80;;;10.50;99.90;;;;;;5034384;28;20465;-76
2022/09/24 00:39:06;;;;;;;8.77;5.70;;;10.50;99.90;;;;;;5034393;28;20478;-76
2022/09/24 00:41:35;;;;;;;9.53;6.30;;;10.50;99.90;;;;;;5034190;28;21232;-76
2022/09/24 00:44:41;;;;;;;7.90;5.30;;;10.50;99.90;;;;;;5034475;28;21076;-76
2022/09/24 00:47:13;;;;;;;7.40;5.10;;;10.50;99.90;;;;;;5034090;28;20461;-76
2022/09/24 00:49:41;;;;;;;9.13;5.90;;;10.50;99.90;;;;;;5034045;28;20485;-76
2022/09/24 00:52:09;;;;;;;10.73;6.77;;;10.50;99.90;;;;;;5034374;28;20814;-76
2022/09/24 00:54:36;;;;;;;7.60;5.90;;;10.50;99.90;;;;;;5034262;28;20502;-76
2022/09/24 00:57:04;;;;;;;9.60;5.90;;;10.60;99.90;;;;;;5033970;28;20454;-76
2022/09/24 00:59:30;;;;;;;7.80;6.00;;;10.50;99.90;;;;;;5034171;28;20446;-76
2022/09/24 01:01:58;;;;;;;8.90;6.27;;;10.60;99.90;;;;;;5033164;28;20457;-76
2022/09/24 01:04:27;;;;;;;7.73;6.23;;;10.50;99.90;;;;;;5033831;28;20543;-76
2022/09/24 01:06:55;;;;;;;9.23;6.17;;;10.50;99.90;;;;;;5033880;28;20828;-76
2022/09/24 01:09:26;;;;;;;9.30;6.17;;;10.50;99.90;;;;;;5033911;28;20487;-76
2022/09/24 01:12:02;;;;;;;10.33;6.60;;;10.50;99.90;;;;;;5033920;28;20453;-76
2022/09/24 01:14:40;;;;;;;9.47;7.20;;;10.50;99.90;;;;;;5033770;28;20500;-76
2022/09/24 01:17:18;;;;;;;7.40;6.70;;;10.40;99.90;;;;;;5034030;28;20450;-76
2022/09/24 01:20:13;;;;;;;8.30;7.23;;;10.50;99.90;;;;;;5033788;28;20450;-76
2022/09/24 01:22:57;;;;;;;13.03;7.30;;;10.50;99.90;;;;;;5033598;28;20445;-76
2022/09/24 01:25:32;;;;;;;10.60;7.33;;;10.40;99.90;;;;;;5033492;28;20899;-76
2022/09/24 01:28:14;;;;;;;18.20;7.57;;;10.40;99.90;;;;;;5033664;28;20480;-76
2022/09/24 01:30:42;;;;;;;7.93;7.00;;;10.40;99.90;;;;;;5033670;28;20446;-77
2022/09/24 01:33:15;;;;;;;15.77;6.90;;;10.40;99.90;;;;;;5033249;28;20541;-76
2022/09/24 01:35:45;;;;;;;9.97;6.50;;;10.40;99.90;;;;;;5033038;28;20544;-76
2022/09/24 01:38:15;;;;;;;10.83;7.10;;;10.40;99.90;;;;;;5033427;28;20445;-76
2022/09/24 01:40:43;;;;;;;8.90;6.60;;;10.40;99.90;;;;;;5033420;28;20446;-76
2022/09/24 01:43:11;;;;;;;7.53;6.50;;;10.40;99.90;;;;;;5033194;28;20496;-76
2022/09/24 01:45:39;;;;;;;9.03;6.83;;;10.40;99.90;;;;;;5033090;28;20450;-76
2022/09/24 01:48:08;;;;;;;9.43;6.33;;;10.40;99.90;;;;;;5032938;28;20812;-76
2022/09/24 01:50:43;;;;;;;7.43;6.43;;;10.40;99.90;;;;;;5032895;28;20489;-76
2022/09/24 01:53:16;;;;;;;8.80;6.80;;;10.40;99.90;;;;;;5033087;28;20450;-76
2022/09/24 01:55:49;;;;;;;7.70;6.10;;;10.40;99.90;;;;;;5032977;28;20475;-76
2022/09/24 01:58:20;;;;;;;8.40;6.60;;;10.30;99.90;;;;;;5033052;28;20464;-76
2022/09/24 02:00:51;;;;;;;7.43;6.73;;;10.30;99.90;;;;;;5032805;28;20488;-76
2022/09/24 02:03:25;;;;;;;9.70;7.17;;;10.30;99.90;;;;;;5032821;28;20477;-76
2022/09/24 02:05:59;;;;;;;10.50;8.20;;;10.20;99.90;;;;;;5032636;28;20453;-76
2022/09/24 02:08:32;;;;;;;13.30;8.10;;;10.20;99.90;;;;;;5032716;28;20555;-76
2022/09/24 02:11:03;;;;;;;11.00;8.67;;;10.30;99.90;;;;;;5032419;28;20999;-76
2022/09/24 02:13:35;;;;;;;10.20;7.80;;;10.30;99.90;;;;;;5032640;28;20477;-76
2022/09/24 02:16:04;;;;;;;17.03;9.07;;;10.30;99.90;;;;;;5032541;28;20516;-76
2022/09/24 02:18:36;;;;;;;11.23;8.20;;;10.30;99.90;;;;;;5032524;28;20485;-76
2022/09/24 02:21:08;;;;;;;13.43;8.87;;;10.30;99.90;;;;;;5032516;28;20464;-76
2022/09/24 02:23:38;;;;;;;12.70;8.70;;;10.20;99.90;;;;;;5032162;28;20528;-76
2022/09/24 02:26:06;;;;;;;10.13;8.00;;;10.20;99.90;;;;;;5032038;28;20977;-76
2022/09/24 02:28:34;;;;;;;12.60;8.10;;;10.20;99.90;;;;;;5032352;28;20457;-76
2022/09/24 02:31:05;;;;;;;12.70;8.53;;;10.20;99.90;;;;;;5032405;28;20456;-76
2022/09/24 02:36:23;;;;;;;10.40;7.77;;;10.20;99.90;;;;;;5032066;28;20426;-76
2022/09/24 02:38:50;;;;;;;9.10;7.90;;;10.20;99.90;;;;;;5032277;28;20450;-76
2022/09/24 02:41:18;;;;;;;8.50;7.27;;;10.10;99.90;;;;;;5032335;28;20528;-76
2022/09/24 02:43:45;;;;;;;8.30;6.80;;;10.10;99.90;;;;;;5032351;28;20475;-76
2022/09/24 02:46:11;;;;;;;9.83;6.87;;;10.10;99.90;;;;;;5031869;28;20515;-76
2022/09/24 02:48:40;;;;;;;7.50;6.57;;;10.10;99.90;;;;;;5032572;28;20454;-76
2022/09/24 02:51:07;;;;;;;6.67;5.93;;;10.00;99.90;;;;;;5032172;28;20545;-76
2022/09/24 02:53:34;;;;;;;7.70;6.57;;;10.10;99.90;;;;;;5032127;28;20472;-76
2022/09/24 02:56:01;;;;;;;9.70;6.70;;;10.00;99.90;;;;;;5031904;28;20953;-76
2022/09/24 02:58:28;;;;;;;6.20;5.50;;;10.00;99.90;;;;;;5031999;28;20461;-76
2022/09/24 03:00:55;;;;;;;12.13;5.87;;;10.00;99.90;;;;;;5031637;28;20444;-76
2022/09/24 03:03:23;;;;;;;6.37;5.70;;;9.90;99.90;;;;;;5031753;28;21005;-76
2022/09/24 03:05:53;;;;;;;8.53;5.63;;;9.90;99.90;;;;;;5031637;28;20453;-76
2022/09/24 03:08:20;;;;;;;5.50;5.00;;;9.80;99.90;;;;;;5031931;28;20457;-76
2022/09/24 03:10:47;;;;;;;5.83;4.80;;;9.70;99.90;;;;;;5031870;28;20535;-76
2022/09/24 03:13:13;;;;;;;6.33;5.23;;;9.70;99.90;;;;;;5031558;28;20871;-76
2022/09/24 03:15:40;;;;;;;5.83;5.27;;;9.60;99.90;;;;;;5031263;28;20966;-76
2022/09/24 03:18:07;;;;;;;9.63;5.07;;;9.60;99.90;;;;;;5031691;28;20454;-76
2022/09/24 03:20:33;;;;;;;8.17;5.67;;;9.60;99.90;;;;;;5031732;28;20449;-76
2022/09/24 03:23:01;;;;;;;5.60;5.00;;;9.60;99.90;;;;;;5031772;28;20450;-76
2022/09/24 03:25:28;;;;;;;7.43;5.23;;;9.50;99.90;;;;;;5034590;28;20449;-76
2022/09/24 03:27:55;;;;;;;24.03;6.87;;;9.50;99.90;;;;;;5035779;28;20453;-76
2022/09/24 03:33:06;;;;;;;5.60;5.10;;;9.50;99.90;;;;;;5035695;28;20432;-76
2022/09/24 03:35:32;;;;;;;5.97;5.17;;;9.40;99.90;;;;;;5035401;28;20453;-76
2022/09/24 03:38:00;;;;;;;9.50;5.10;;;9.40;99.90;;;;;;5035555;28;20459;-76
2022/09/24 03:40:27;;;;;;;5.10;4.70;;;9.30;99.90;;;;;;5035334;28;20575;-76
2022/09/24 03:42:54;;;;;;;9.10;5.30;;;9.30;99.90;;;;;;5035698;28;20467;-76
2022/09/24 03:45:20;;;;;;;6.17;4.93;;;9.30;99.90;;;;;;5035360;28;20477;-76
2022/09/24 03:47:47;;;;;;;5.27;4.70;;;9.20;99.90;;;;;;5035434;28;20458;-76
2022/09/24 03:50:14;;;;;;;6.50;4.70;;;9.20;99.90;;;;;;5035502;28;20489;-76
2022/09/24 03:52:41;;;;;;;5.70;5.10;;;9.20;99.90;;;;;;5035347;28;20454;-76
2022/09/24 03:55:09;;;;;;;7.00;5.30;;;9.10;99.90;;;;;;5034836;28;20481;-76
2022/09/24 03:57:36;;;;;;;11.10;4.93;;;9.10;99.90;;;;;;5035466;28;20512;-76
2022/09/24 04:00:03;;;;;;;7.37;5.50;;;9.00;99.90;;;;;;5035230;28;20446;-76
2022/09/24 04:02:30;;;;;;;6.90;4.60;;;9.00;99.90;;;;;;5035393;28;20456;-76
2022/09/24 04:04:57;;;;;;;10.83;5.30;;;8.90;99.90;;;;;;5035007;28;20467;-76
2022/09/24 04:07:24;;;;;;;5.90;5.30;;;8.90;99.90;;;;;;5035203;28;20521;-76
2022/09/24 04:09:51;;;;;;;5.57;5.07;;;8.90;99.90;;;;;;5034753;28;20893;-76
2022/09/24 04:12:19;;;;;;;14.10;5.70;;;8.90;99.90;;;;;;5035093;28;20485;-76
2022/09/24 04:14:46;;;;;;;20.23;5.97;;;8.80;99.90;;;;;;5034804;28;20476;-76
2022/09/24 04:17:13;;;;;;;6.73;6.13;;;8.80;99.90;;;;;;5034792;28;20449;-76
2022/09/24 04:19:39;;;;;;;11.50;6.00;;;8.80;99.90;;;;;;5034806;28;20446;-76
2022/09/24 04:22:06;;;;;;;7.00;5.77;;;8.80;99.90;;;;;;5034599;28;20450;-76
2022/09/24 04:24:33;;;;;;;12.30;6.17;;;8.70;99.90;;;;;;5034786;28;20531;-76
2022/09/24 04:26:59;;;;;;;11.53;6.03;;;8.70;99.90;;;;;;5034659;28;20461;-76
2022/09/24 04:29:27;;;;;;;8.13;5.97;;;8.70;99.90;;;;;;5034740;28;20456;-76
2022/09/24 04:31:54;;;;;;;6.93;5.60;;;8.70;99.90;;;;;;5034472;28;20484;-76
2022/09/24 04:34:21;;;;;;;7.57;5.90;;;8.80;99.90;;;;;;5034513;28;20985;-76
2022/09/24 04:36:47;;;;;;;7.03;5.60;;;8.80;99.90;;;;;;5032895;28;20466;-76
2022/09/24 04:39:14;;;;;;;8.30;5.87;;;8.80;99.90;;;;;;5034592;28;20583;-76
2022/09/24 04:41:41;;;;;;;6.80;5.73;;;8.80;99.90;;;;;;5034284;28;21011;-76
2022/09/24 04:44:07;;;;;;;6.80;6.10;;;8.70;99.90;;;;;;5034425;28;20484;-76
2022/09/24 04:46:35;;;;;;;10.37;6.20;;;8.70;99.90;;;;;;5033993;28;20464;-76
2022/09/24 04:49:02;;;;;;;8.40;6.57;;;8.70;99.90;;;;;;5034442;28;20501;-76
2022/09/24 04:51:34;;;;;;;10.40;7.23;;;8.70;99.90;;;;;;5033891;28;20519;-76
2022/09/24 04:54:02;;;;;;;12.47;8.17;;;8.70;99.90;;;;;;5034680;28;20481;-75
2022/09/24 04:56:28;;;;;;;11.07;8.03;;;8.70;99.90;;;;;;5034289;28;20545;-76
2022/09/24 04:58:55;;;;;;;9.30;7.90;;;8.70;99.90;;;;;;5034188;28;20473;-76
2022/09/24 05:01:22;;;;;;;10.40;7.97;;;8.70;99.90;;;;;;5033883;28;20930;-76
2022/09/24 05:03:50;;;;;;;10.73;8.13;;;8.70;99.90;;;;;;5033784;28;20498;-76
2022/09/24 05:06:17;;;;;;;10.27;7.97;;;8.60;99.90;;;;;;5033757;28;20458;-76
2022/09/24 05:08:43;;;;;;;9.70;8.00;;;8.50;99.90;;;;;;5034047;28;20453;-76
2022/09/24 05:11:11;;;;;;;12.37;9.37;;;8.50;99.90;;;;;;5033906;28;20488;-76
2022/09/24 05:13:38;;;;;;;12.57;9.07;;;8.50;99.90;;;;;;5033779;28;20466;-76
2022/09/24 05:16:05;;;;;;;10.97;9.00;;;8.50;99.90;;;;;;5033465;28;20466;-76
2022/09/24 05:18:32;;;;;;;10.70;8.87;;;8.50;99.90;;;;;;5033549;28;20449;-75
2022/09/24 05:21:00;;;;;;;11.37;8.47;;;8.50;99.90;;;;;;5033514;28;20939;-76
2022/09/24 05:23:26;;;;;;;11.40;9.10;;;8.60;99.90;;;;;;5033618;28;21014;-76
2022/09/24 05:28:39;;;;;;;14.53;9.77;;;8.60;99.90;;;;;;5033492;28;20515;-75
2022/09/24 05:31:07;;;;;;;11.77;9.90;;;8.60;99.90;;;;;;5033057;28;20485;-76
2022/09/24 05:33:35;;;;;;;14.30;9.53;;;8.60;99.90;;;;;;5033458;28;20473;-76
2022/09/24 05:36:03;;;;;;;14.30;9.23;;;8.60;99.90;;;;;;5033288;28;20500;-76
2022/09/24 05:38:31;;;;;;;17.30;9.50;;;8.70;99.90;;;;;;5033359;28;20476;-76
2022/09/24 05:40:58;;;;;;;21.20;9.43;;;8.70;99.90;;;;;;5033164;28;20461;-76
2022/09/24 05:43:26;;;;;;;14.23;9.33;;;8.70;99.90;;;;;;5033069;28;20469;-76
2022/09/24 05:45:53;;;;;;;14.60;10.20;;;8.80;99.90;;;;;;5032908;28;20515;-76
2022/09/24 05:48:20;;;;;;;16.37;10.10;;;8.80;99.90;;;;;;5033036;28;20457;-76
2022/09/24 05:50:47;;;;;;;13.73;9.27;;;8.80;99.90;;;;;;5032988;28;20653;-76
2022/09/24 05:53:15;;;;;;;15.27;10.73;;;8.90;99.90;;;;;;5033049;28;20938;-76
2022/09/24 05:55:42;;;;;;;11.50;9.93;;;9.00;99.90;;;;;;5032612;28;20954;-76
2022/09/24 05:58:10;;;;;;;15.40;9.83;;;9.10;99.90;;;;;;5033040;28;20478;-76
2022/09/24 06:00:37;;;;;;;16.70;10.20;;;9.10;99.90;;;;;;5033129;28;20492;-76
2022/09/24 06:03:06;;;;;;;11.40;9.03;;;9.30;99.90;;;;;;5032814;28;20450;-76
2022/09/24 06:05:34;;;;;;;12.70;8.87;;;9.40;99.90;;;;;;5032598;28;20473;-76
2022/09/24 06:08:01;;;;;;;11.27;9.10;;;9.50;99.90;;;;;;5032915;28;20564;-76
2022/09/24 06:10:29;;;;;;;14.20;8.93;;;9.60;99.90;;;;;;5032506;28;20512;-76
2022/09/24 06:12:56;;;;;;;12.87;9.10;;;9.80;99.90;;;;;;5032790;28;20515;-76
2022/09/24 06:15:25;;;;;;;10.43;7.60;;;10.00;99.90;;;;;;5032472;28;20470;-76
2022/09/24 06:17:53;;;;;;;11.37;8.60;;;10.40;99.90;;;;;;5032571;28;20446;-76
2022/09/24 06:20:20;;;;;;;8.33;7.27;;;10.70;99.90;;;;;;5032538;28;20474;-76
2022/09/24 06:22:46;;;;;;;12.47;7.90;;;11.20;99.90;;;;;;5032324;28;20454;-76
2022/09/24 06:25:13;;;;;;;8.37;7.23;;;11.80;99.90;;;;;;5032164;28;20484;-76
2022/09/24 06:27:41;;;;;;;13.57;7.97;;;12.10;99.90;;;;;;5032600;28;20461;-77
2022/09/24 06:30:09;;;;;;;14.90;7.70;;;12.30;99.90;;;;;;5032451;28;20538;-76
2022/09/24 06:32:36;;;;;;;9.43;7.53;;;12.60;99.90;;;;;;5032293;28;20551;-77
2022/09/24 06:35:02;;;;;;;8.00;6.93;;;12.90;99.90;;;;;;5032151;28;20482;-77
2022/09/24 06:37:29;;;;;;;8.00;7.00;;;13.10;99.90;;;;;;5032488;28;20508;-77
2022/09/24 06:39:56;;;;;;;7.23;6.53;;;13.10;99.90;;;;;;5032308;28;20456;-76
2022/09/24 06:42:22;;;;;;;10.10;7.20;;;12.90;99.90;;;;;;5032197;28;20466;-77
2022/09/24 06:44:50;;;;;;;11.37;8.20;;;12.70;99.90;;;;;;5032414;28;20474;-77
2022/09/24 06:47:17;;;;;;;10.23;6.97;;;12.50;99.90;;;;;;5031760;28;20494;-77
2022/09/24 06:49:44;;;;;;;9.70;7.87;;;12.50;99.90;;;;;;5032093;28;20461;-77
2022/09/24 06:52:10;;;;;;;8.40;7.47;;;12.80;99.90;;;;;;5031576;28;20495;-77
2022/09/24 06:54:37;;;;;;;9.27;8.07;;;13.30;99.90;;;;;;5032149;28;20506;-77
2022/09/24 06:57:06;;;;;;;9.60;7.23;;;13.80;99.90;;;;;;5031832;28;20455;-77
2022/09/24 06:59:33;;;;;;;11.73;7.37;;;14.20;99.90;;;;;;5031292;28;20450;-76
2022/09/24 07:02:01;;;;;;;8.83;7.10;;;14.80;99.90;;;;;;5032093;28;20462;-76
2022/09/24 07:04:28;;;;;;;11.60;7.43;;;15.10;99.90;;;;;;5032024;28;20501;-76
2022/09/24 07:09:40;;;;;;;8.70;7.00;;;16.00;99.90;;;;;;5031882;28;20484;-77
2022/09/24 07:12:07;;;;;;;10.20;7.60;;;16.50;99.90;;;;;;5031729;28;20492;-77
2022/09/24 07:14:34;;;;;;;10.43;8.67;;;16.90;99.90;;;;;;5031725;28;20944;-77
2022/09/24 07:17:02;;;;;;;11.17;8.90;;;17.10;99.90;;;;;;5031364;28;20458;-77
2022/09/24 07:19:29;;;;;;;9.87;8.40;;;17.20;99.90;;;;;;5031705;28;20955;-77
2022/09/24 07:21:56;;;;;;;19.90;9.80;;;17.30;99.90;;;;;;5031826;28;20461;-77
2022/09/24 07:24:23;;;;;;;13.17;8.67;;;17.40;99.90;;;;;;5031584;28;20889;-77
2022/09/24 07:26:50;;;;;;;13.93;9.00;;;17.60;99.90;;;;;;5031259;28;20488;-77
2022/09/24 07:29:17;;;;;;;13.07;9.03;;;17.70;99.90;;;;;;5031548;28;20960;-77
2022/09/24 07:31:44;;;;;;;10.40;8.43;;;18.00;99.90;;;;;;5031794;28;20981;-77
2022/09/24 07:34:12;;;;;;;16.33;11.00;;;18.10;99.90;;;;;;5031688;28;20482;-77
2022/09/24 07:36:39;;;;;;;18.93;9.20;;;18.10;99.90;;;;;;5031439;28;20958;-77
2022/09/24 07:39:06;;;;;;;12.37;9.20;;;18.00;99.90;;;;;;5031754;28;20512;-77
2022/09/24 07:41:33;;;;;;;20.43;9.37;;;17.80;99.90;;;;;;5031674;28;20443;-77
2022/09/24 07:44:00;;;;;;;10.30;8.70;;;17.80;99.90;;;;;;5031454;28;20805;-77
2022/09/24 07:46:27;;;;;;;11.57;8.77;;;17.90;99.90;;;;;;5030909;28;20520;-77
2022/09/24 07:48:54;;;;;;;11.77;8.60;;;17.90;99.90;;;;;;5031643;28;20440;-77
2022/09/24 07:51:23;;;;;;;11.00;8.40;;;18.00;99.90;;;;;;5031561;28;20520;-77
2022/09/24 07:53:49;;;;;;;9.27;8.27;;;17.90;99.90;;;;;;5031267;28;20480;-77
2022/09/24 07:56:16;;;;;;;10.90;9.10;;;17.90;99.90;;;;;;5031420;28;20450;-77
2022/09/24 07:58:43;;;;;;;12.43;8.30;;;18.10;99.90;;;;;;5031533;28;20454;-80
2022/09/24 08:01:09;;;;;;;11.03;8.53;;;18.30;99.90;;;;;;5031482;28;20425;-79
2022/09/24 08:03:36;;;;;;;11.97;9.97;;;18.10;99.90;;;;;;5031575;28;21025;-79
2022/09/24 08:06:04;;;;;;;13.30;10.80;;;17.60;99.90;;;;;;5031697;28;20500;-79
2022/09/24 08:08:32;;;;;;;11.27;9.13;;;17.20;99.90;;;;;;5031901;28;20627;-79
2022/09/24 08:11:03;;;;;;;11.63;9.00;;;16.90;99.90;;;;;;5033910;28;20522;-79
2022/09/24 08:13:30;;;;;;;17.73;9.53;;;16.50;99.90;;;;;;5036154;28;20512;-79
2022/09/24 08:15:59;;;;;;;15.40;9.33;;;16.30;99.90;;;;;;5044409;28;20473;-79
2022/09/24 08:18:25;;;;;;;13.63;10.00;;;16.10;99.90;;;;;;5035962;28;20482;-80
2022/09/24 08:20:52;;;;;;;15.97;10.40;;;16.00;99.90;;;;;;5035493;28;20798;-79
2022/09/24 08:23:19;;;;;;;20.27;10.07;;;16.20;99.90;;;;;;5034866;28;20942;-80
2022/09/24 08:25:47;;;;;;;11.93;9.97;;;16.40;99.90;;;;;;5035387;28;20433;-80
2022/09/24 08:28:15;;;;;;;17.80;11.53;;;16.40;99.90;;;;;;5035066;28;20433;-79
2022/09/24 08:30:42;;;;;;;15.37;11.53;;;16.40;99.90;;;;;;5034982;28;20454;-79
2022/09/24 08:33:10;;;;;;;36.90;22.40;;;16.10;99.90;;;;;;5034885;28;20454;-79
2022/09/24 08:35:38;;;;;;;17.57;13.07;;;15.90;99.90;;;;;;5034669;28;20508;-79
2022/09/24 08:38:05;;;;;;;14.67;11.20;;;15.70;99.90;;;;;;5034543;28;21002;-80
2022/09/24 08:40:37;;;;;;;15.90;11.83;;;15.50;99.90;;;;;;5034426;28;20454;-79
2022/09/24 08:43:15;;;;;;;16.90;11.57;;;15.40;99.90;;;;;;5034380;28;20809;-80
2022/09/24 08:48:36;;;;;;;15.17;11.50;;;15.50;99.90;;;;;;5034405;28;20512;-80
2022/09/24 08:51:11;;;;;;;18.30;12.10;;;15.50;99.90;;;;;;5034146;28;20514;-80
2022/09/24 08:53:45;;;;;;;16.37;11.83;;;15.30;99.90;;;;;;5034374;28;20465;-79
2022/09/24 08:56:12;;;;;;;19.23;12.10;;;15.30;99.90;;;;;;5034531;28;20453;-80
2022/09/24 08:58:46;;;;;;;13.50;11.23;;;15.30;99.90;;;;;;5034380;28;20457;-80
2022/09/24 09:01:22;;;;;;;17.90;11.40;;;15.50;99.90;;;;;;5034207;28;20445;-80
2022/09/24 09:03:54;;;;;;;16.13;11.40;;;15.80;99.90;;;;;;5034475;28;20470;-80
2022/09/24 09:06:41;;;;;;;14.23;11.40;;;16.10;99.90;;;;;;5034137;28;20454;-80
2022/09/24 09:09:13;;;;;;;18.57;11.53;;;16.30;99.90;;;;;;5034013;28;20450;-80
2022/09/24 09:11:42;;;;;;;15.50;11.30;;;16.50;99.90;;;;;;5034096;28;20477;-80
2022/09/24 09:14:17;;;;;;;16.37;10.67;;;16.80;99.90;;;;;;5034046;28;20978;-80
2022/09/24 09:16:48;;;;;;;13.63;10.23;;;16.80;99.90;;;;;;5035165;28;20450;-80
2022/09/24 09:19:17;;;;;;;15.97;12.03;;;16.90;99.90;;;;;;5034703;28;20968;-80
2022/09/24 09:21:51;;;;;;;14.40;10.70;;;17.00;99.90;;;;;;5034128;28;20529;-80
2022/09/24 09:24:22;;;;;;;12.03;10.80;;;17.00;99.90;;;;;;5033725;28;20478;-80
2022/09/24 09:26:53;;;;;;;15.23;11.37;;;16.90;99.90;;;;;;5034114;28;20793;-79
2022/09/24 09:29:24;;;;;;;14.07;11.73;;;17.10;99.90;;;;;;5034244;28;20512;-80
2022/09/24 09:32:02;;;;;;;15.00;11.40;;;17.60;99.90;;;;;;5034132;28;21072;-79
2022/09/24 09:34:44;;;;;;;13.03;10.50;;;18.30;99.90;;;;;;5033746;28;20474;-80
2022/09/24 09:37:20;;;;;;;14.23;10.90;;;18.90;99.90;;;;;;5033990;28;20931;-80
2022/09/24 09:39:57;;;;;;;12.60;10.80;;;19.00;99.90;;;;;;5034647;28;20839;-80
2022/09/24 09:42:28;;;;;;;12.50;9.70;;;18.70;99.90;;;;;;5034566;28;20453;-80
2022/09/24 09:44:56;;;;;;;14.97;10.57;;;18.60;99.90;;;;;;5035443;28;20449;-80
2022/09/24 09:47:32;;;;;;;14.50;10.37;;;18.60;99.90;;;;;;5033827;28;20462;-80
2022/09/24 09:50:04;;;;;;;12.63;10.20;;;19.00;99.90;;;;;;5035008;28;20540;-81
2022/09/24 09:52:37;;;;;;;13.87;10.60;;;19.50;99.90;;;;;;5034231;28;20461;-80
2022/09/24 09:55:05;;;;;;;13.40;10.37;;;19.90;99.90;;;;;;5033391;28;20561;-80
2022/09/24 09:57:35;;;;;;;17.17;10.33;;;20.00;99.90;;;;;;5033140;28;20454;-80
2022/09/24 10:00:05;;;;;;;10.80;9.20;;;20.20;99.90;;;;;;5033893;28;20485;-80
2022/09/24 10:02:33;;;;;;;14.20;10.00;;;20.60;99.90;;;;;;5033824;28;20423;-80
2022/09/24 10:05:02;;;;;;;15.17;9.80;;;20.80;99.90;;;;;;5034185;28;20449;-80
2022/09/24 10:07:30;;;;;;;10.00;9.00;;;21.00;99.90;;;;;;5034806;28;20428;-80
2022/09/24 10:10:02;;;;;;;11.63;9.03;;;21.10;99.90;;;;;;5034183;28;20490;-80
2022/09/24 10:12:30;;;;;;;15.43;10.50;;;20.80;99.90;;;;;;5033772;28;20486;-79
2022/09/24 10:15:00;;;;;;;12.60;9.93;;;20.60;99.90;;;;;;5033380;28;20474;-80
2022/09/24 10:17:34;;;;;;;11.90;10.00;;;20.10;99.90;;;;;;5033066;28;20424;-80
2022/09/24 10:20:02;;;;;;;11.57;10.10;;;19.70;99.90;;;;;;5033606;28;20432;-80
2022/09/24 10:22:30;;;;;;;17.83;12.80;;;19.80;99.90;;;;;;5033422;28;20549;-80
2022/09/24 10:25:00;;;;;;;14.97;11.33;;;20.00;99.90;;;;;;5032852;28;20532;-80
2022/09/24 10:27:32;;;;;;;14.77;10.50;;;20.10;99.90;;;;;;5033676;28;20453;-79
2022/09/24 10:32:47;;;;;;;14.50;11.07;;;20.60;99.90;;;;;;5032313;28;20619;-79
2022/09/24 10:35:25;;;;;;;26.17;10.87;;;20.90;99.90;;;;;;5031770;28;20886;-80
2022/09/24 10:37:53;;;;;;;14.90;11.67;;;21.20;99.90;;;;;;5032605;28;20429;-79
2022/09/24 10:40:24;;;;;;;15.73;10.60;;;21.40;99.90;;;;;;5032183;28;20920;-79
2022/09/24 10:43:02;;;;;;;15.10;12.03;;;21.70;99.90;;;;;;5032249;28;20461;-79
2022/09/24 10:45:42;;;;;;;14.83;11.00;;;21.70;99.90;;;;;;5031867;28;20432;-80
2022/09/24 10:48:17;;;;;;;14.20;11.33;;;21.80;99.90;;;;;;5032017;28;20954;-79
2022/09/24 10:50:50;;;;;;;19.03;10.60;;;22.00;99.90;;;;;;5032071;28;20454;-79
2022/09/24 10:53:28;;;;;;;17.53;11.43;;;22.00;99.90;;;;;;5032121;28;20486;-79
2022/09/24 10:56:00;;;;;;;13.60;11.00;;;21.60;99.90;;;;;;5031615;28;20449;-79
2022/09/24 10:59:07;;;;;;;16.07;10.53;;;20.90;99.90;;;;;;5031882;28;20936;-79
2022/09/24 11:01:45;;;;;;;15.10;11.80;;;20.70;99.90;;;;;;5031924;28;20460;-79
2022/09/24 11:04:34;;;;;;;14.97;11.20;;;20.20;99.90;;;;;;5031667;28;20480;-80
2022/09/24 11:07:22;;;;;;;17.97;10.90;;;20.20;99.90;;;;;;5031655;28;20983;-79
2022/09/24 11:09:56;;;;;;;17.93;10.93;;;20.40;99.90;;;;;;5031807;28;20913;-79
2022/09/24 11:12:31;;;;;;;17.50;10.63;;;20.50;99.90;;;;;;5031923;28;20536;-79
2022/09/24 11:15:20;;;;;;;15.40;10.30;;;20.70;99.90;;;;;;5031838;28;20523;-79
2022/09/24 11:18:00;;;;;;;11.13;9.63;;;20.90;99.90;;;;;;5031702;28;20425;-79
2022/09/24 11:20:35;;;;;;;15.47;9.70;;;20.90;99.90;;;;;;5031710;28;20897;-80
2022/09/24 11:23:31;;;;;;;12.10;9.43;;;21.20;99.90;;;;;;5031514;28;20446;-79
2022/09/24 11:26:06;;;;;;;14.03;10.43;;;21.30;99.90;;;;;;5031512;28;20446;-79
2022/09/24 11:28:53;;;;;;;14.93;8.87;;;21.60;99.90;;;;;;5031719;28;20536;-80
2022/09/24 11:31:29;;;;;;;9.17;7.67;;;21.80;99.90;;;;;;5031366;28;20458;-79
2022/09/24 11:34:13;;;;;;;10.63;8.27;;;21.50;99.90;;;;;;5031625;28;20867;-79
2022/09/24 11:37:01;;;;;;;9.00;6.90;;;20.90;99.90;;;;;;5031477;28;20454;-79
2022/09/24 11:39:40;;;;;;;11.47;8.33;;;20.80;99.90;;;;;;5031414;28;20446;-80
2022/09/24 11:42:20;;;;;;;10.80;8.33;;;21.00;99.90;;;;;;5031889;28;20450;-79
2022/09/24 11:45:14;;;;;;;12.47;7.50;;;21.30;99.90;;;;;;5031987;28;20470;-79
2022/09/24 11:47:55;;;;;;;18.70;8.30;;;21.00;99.90;;;;;;5035701;28;20891;-79
2022/09/24 11:50:32;;;;;;;10.67;7.20;;;20.90;99.90;;;;;;5035380;28;20453;-79
2022/09/24 11:53:06;;;;;;;7.70;6.63;;;20.90;99.90;;;;;;5035657;28;20489;-79
2022/09/24 11:55:37;;;;;;;10.73;6.50;;;21.30;99.90;;;;;;5035141;28;20454;-79
2022/09/24 11:58:11;;;;;;;9.40;7.67;;;22.00;99.90;;;;;;5035375;28;20442;-79
2022/09/24 12:00:45;;;;;;;11.50;7.40;;;22.50;99.90;;;;;;5035191;28;20453;-79
2022/09/24 12:03:19;;;;;;;7.73;6.30;;;22.50;99.90;;;;;;5035479;28;20442;-80
2022/09/24 12:05:51;;;;;;;8.80;6.40;;;22.30;99.90;;;;;;5035024;28;20457;-81
2022/09/24 12:08:26;;;;;;;8.63;6.23;;;22.20;99.90;;;;;;5035295;28;20873;-79
2022/09/24 12:10:58;;;;;;;6.77;5.87;;;22.00;99.90;;;;;;5034928;28;20536;-79
2022/09/24 12:13:30;;;;;;;12.47;6.17;;;22.10;99.90;;;;;;5034808;28;20492;-79
2022/09/24 12:16:01;;;;;;;7.00;5.40;;;22.50;99.90;;;;;;5034834;28;20461;-79
2022/09/24 12:18:33;;;;;;;8.30;5.10;;;22.60;99.90;;;;;;5035220;28;20453;-79
2022/09/24 12:21:02;;;;;;;6.23;4.57;;;22.80;99.90;;;;;;5034858;28;20464;-79
2022/09/24 12:23:34;;;;;;;9.40;5.90;;;22.80;99.90;;;;;;5034606;28;20468;-80
2022/09/24 12:26:04;;;;;;;9.13;4.90;;;22.80;99.90;;;;;;5034946;28;20456;-79
2022/09/24 12:34:22;;;;;;;10.20;4.77;;;22.20;99.90;;;;;;5034645;28;20996;-79
2022/09/24 12:36:57;;;;;;;7.30;4.90;;;21.90;99.90;;;;;;5034274;28;20934;-79
2022/09/24 12:39:28;;;;;;;8.10;5.47;;;21.30;99.90;;;;;;5034780;28;20448;-79
2022/09/24 12:42:01;;;;;;;8.80;5.00;;;21.00;99.90;;;;;;5034693;28;20454;-80
2022/09/24 12:44:35;;;;;;;5.07;4.40;;;20.80;99.90;;;;;;5034714;28;20470;-79
2022/09/24 12:47:02;;;;;;;5.50;4.80;;;20.70;99.90;;;;;;5034200;28;20454;-79
2022/09/24 12:49:33;;;;;;;6.30;4.77;;;20.80;99.90;;;;;;5034635;28;20450;-80
2022/09/24 12:52:02;;;;;;;8.13;5.10;;;20.90;99.90;;;;;;5034309;28;20478;-79
2022/09/24 12:54:32;;;;;;;10.33;5.07;;;21.10;99.90;;;;;;5034444;28;20535;-79
2022/09/24 12:57:09;;;;;;;9.23;4.60;;;21.50;99.90;;;;;;5032689;28;20454;-79
2022/09/24 12:59:47;;;;;;;6.43;4.50;;;21.60;99.90;;;;;;5034303;28;20548;-80
2022/09/24 13:02:16;;;;;;;6.13;3.73;;;21.60;99.90;;;;;;5034226;28;20445;-80
2022/09/24 13:04:49;;;;;;;7.57;4.60;;;22.00;99.90;;;;;;5033995;28;20481;-79
2022/09/24 13:07:34;;;;;;;9.10;5.23;;;22.30;99.90;;;;;;5033671;28;20455;-80
2022/09/24 13:10:22;;;;;;;5.00;4.47;;;22.60;99.90;;;;;;5034267;28;20424;-79
2022/09/24 13:12:49;;;;;;;11.20;5.80;;;23.10;99.90;;;;;;5034097;28;20536;-80
2022/09/24 13:15:32;;;;;;;7.87;4.87;;;23.10;99.90;;;;;;5033597;28;20509;-80
2022/09/24 13:18:22;;;;;;;8.70;5.80;;;23.00;99.90;;;;;;5034546;28;20457;-80
2022/09/24 13:21:01;;;;;;;8.13;4.70;;;23.00;99.90;;;;;;5035773;28;20481;-80
2022/09/24 13:23:43;;;;;;;5.27;4.80;;;23.20;99.90;;;;;;5037821;28;20462;-80